Time;durP1;ratioP1;P1;durP2;ratioP2;P2;SDS_P1;SDS_P2;PMS_P1;PMS_P2;Temp;Humidity;BMP_temperature;BMP_pressure;BME280_temperature;BME280_humidity;BME280_pressure;Samples;Min_cycle;Max_cycle;Signal;HPM_P1;HPM_P2
2023/06/27 00:01:14;;;;;;;0.57;0.40;;;24.90;56.20;;;;;;7811731;22;20558;-52
2023/06/27 00:04:16;;;;;;;0.77;0.38;;;24.50;55.90;;;;;;7810855;22;20016;-53
2023/06/27 00:07:27;;;;;;;0.68;0.40;;;25.00;56.30;;;;;;7811441;22;20602;-55
2023/06/27 00:10:29;;;;;;;0.57;0.30;;;24.90;56.20;;;;;;7811891;22;20019;-54
2023/06/27 00:13:31;;;;;;;0.68;0.40;;;24.70;56.30;;;;;;7811860;22;20007;-54
2023/06/27 00:16:32;;;;;;;1.20;0.40;;;24.90;56.40;;;;;;7814673;22;20018;-53
2023/06/27 00:19:34;;;;;;;0.50;0.40;;;24.90;56.60;;;;;;7814581;22;20046;-54
2023/06/27 00:22:40;;;;;;;0.50;0.28;;;24.90;56.50;;;;;;7814493;22;20012;-53
2023/06/27 00:25:42;;;;;;;0.40;0.28;;;24.80;56.70;;;;;;7813232;22;20008;-54
2023/06/27 00:28:43;;;;;;;0.43;0.30;;;24.90;56.80;;;;;;7813961;22;20015;-54
2023/06/27 00:31:45;;;;;;;0.70;0.50;;;24.80;56.80;;;;;;7814573;22;20019;-53
2023/06/27 00:34:49;;;;;;;0.50;0.30;;;24.50;56.70;;;;;;7814370;22;20362;-54
2023/06/27 00:37:52;;;;;;;0.68;0.57;;;24.80;55.20;;;;;;7812764;22;20008;-51
2023/06/27 00:40:53;;;;;;;0.30;0.20;;;24.80;56.80;;;;;;7813568;22;20023;-51
2023/06/27 00:43:56;;;;;;;0.30;0.30;;;24.80;57.10;;;;;;7813587;22;20022;-51
2023/06/27 00:46:59;;;;;;;0.60;0.30;;;24.90;57.10;;;;;;7813700;22;20055;-53
2023/06/27 00:50:00;;;;;;;0.90;0.30;;;24.80;57.00;;;;;;7814035;22;20027;-54
2023/06/27 00:53:03;;;;;;;0.57;0.20;;;24.80;57.10;;;;;;7813983;22;20011;-51
2023/06/27 00:56:05;;;;;;;0.77;0.30;;;24.40;56.90;;;;;;7812423;22;20023;-54
2023/06/27 00:59:07;;;;;;;0.60;0.40;;;24.50;57.20;;;;;;7812949;22;20335;-53
2023/06/27 01:02:09;;;;;;;0.52;0.30;;;24.70;58.00;;;;;;7813863;22;20016;-51
2023/06/27 01:05:12;;;;;;;0.32;0.30;;;24.80;57.40;;;;;;7813444;22;20399;-51
2023/06/27 01:08:23;;;;;;;0.32;0.25;;;24.80;57.40;;;;;;7814719;22;20011;-52
2023/06/27 01:11:33;;;;;;;0.60;0.30;;;24.70;57.40;;;;;;7813636;22;20090;-50
2023/06/27 01:14:35;;;;;;;0.30;0.20;;;24.70;57.70;;;;;;7810990;22;20023;-52
2023/06/27 01:17:37;;;;;;;0.47;0.20;;;24.70;57.50;;;;;;7811582;22;20019;-51
2023/06/27 01:20:43;;;;;;;0.40;0.30;;;24.50;57.50;;;;;;7806497;22;20019;-50
2023/06/27 01:23:50;;;;;;;0.60;0.30;;;24.70;57.60;;;;;;7802384;22;20016;-64
2023/06/27 01:26:53;;;;;;;0.45;0.30;;;24.70;57.40;;;;;;7809968;22;20011;-64
2023/06/27 01:29:54;;;;;;;0.40;0.25;;;24.90;57.70;;;;;;7805561;22;20019;-64
2023/06/27 01:33:02;;;;;;;0.30;0.20;;;24.80;57.70;;;;;;7785022;22;20367;-64
2023/06/27 01:36:09;;;;;;;0.22;0.20;;;24.50;57.60;;;;;;7810575;22;20011;-64
2023/06/27 01:39:21;;;;;;;0.55;0.30;;;24.80;57.80;;;;;;7783070;22;20019;-64
2023/06/27 01:42:27;;;;;;;0.47;0.28;;;24.60;57.80;;;;;;7809758;22;20016;-64
2023/06/27 01:45:32;;;;;;;0.20;0.20;;;24.70;57.90;;;;;;7808205;22;20087;-64
2023/06/27 01:48:35;;;;;;;0.40;0.35;;;24.90;58.00;;;;;;7809193;22;20022;-64
2023/06/27 01:51:36;;;;;;;0.77;0.30;;;24.70;58.00;;;;;;7810101;22;20023;-64
2023/06/27 01:54:39;;;;;;;0.30;0.20;;;24.90;57.90;;;;;;7807043;22;20127;-64
2023/06/27 01:57:41;;;;;;;0.43;0.28;;;24.80;58.10;;;;;;7808901;22;20012;-64
2023/06/27 02:00:43;;;;;;;0.40;0.30;;;24.50;57.80;;;;;;7808934;22;20024;-64
2023/06/27 02:03:47;;;;;;;0.40;0.35;;;24.80;58.50;;;;;;7806562;22;20060;-64
2023/06/27 02:06:48;;;;;;;0.50;0.20;;;24.80;58.40;;;;;;7809629;22;20018;-64
2023/06/27 02:09:50;;;;;;;0.15;0.15;;;24.70;58.50;;;;;;7809793;22;20555;-64
2023/06/27 02:12:52;;;;;;;0.75;0.30;;;24.70;58.50;;;;;;7806033;22;20079;-64
2023/06/27 02:15:53;;;;;;;0.20;0.20;;;24.80;58.70;;;;;;7809751;22;20209;-64
2023/06/27 02:18:55;;;;;;;0.65;0.22;;;24.70;58.20;;;;;;7808832;22;20025;-64
2023/06/27 02:21:57;;;;;;;0.47;0.30;;;24.70;58.70;;;;;;7805118;22;20015;-64
2023/06/27 02:24:59;;;;;;;0.75;0.40;;;24.60;58.70;;;;;;7808147;22;20092;-64
2023/06/27 02:28:00;;;;;;;0.40;0.30;;;24.70;58.70;;;;;;7808277;22;20015;-64
2023/06/27 02:31:02;;;;;;;0.30;0.22;;;24.90;59.00;;;;;;7804655;22;20015;-64
2023/06/27 02:34:04;;;;;;;0.45;0.30;;;24.70;58.90;;;;;;7809580;22;20062;-64
2023/06/27 02:37:06;;;;;;;0.47;0.28;;;24.70;58.80;;;;;;7808881;22;20020;-64
2023/06/27 02:40:11;;;;;;;0.20;0.20;;;24.70;58.90;;;;;;7808732;22;20011;-64
2023/06/27 02:43:13;;;;;;;0.20;0.20;;;24.70;58.80;;;;;;7808908;22;20012;-64
2023/06/27 02:46:14;;;;;;;0.50;0.20;;;24.40;59.50;;;;;;7808008;22;20011;-64
2023/06/27 02:49:16;;;;;;;0.52;0.30;;;24.60;58.70;;;;;;7807147;22;20079;-64
2023/06/27 02:52:17;;;;;;;0.93;0.30;;;24.60;59.10;;;;;;7809293;22;20011;-64
2023/06/27 02:55:21;;;;;;;0.52;0.30;;;24.70;59.20;;;;;;7786830;22;20536;-63
2023/06/27 02:58:24;;;;;;;0.30;0.20;;;24.70;59.60;;;;;;7729793;22;20015;-64
2023/06/27 03:01:26;;;;;;;0.10;0.10;;;24.60;59.10;;;;;;7785438;22;20030;-64
2023/06/27 03:04:28;;;;;;;0.30;0.20;;;24.60;59.30;;;;;;7805570;22;20058;-64
2023/06/27 03:07:30;;;;;;;0.32;0.20;;;24.60;59.20;;;;;;7808362;22;20015;-63
2023/06/27 03:10:32;;;;;;;0.95;0.20;;;24.70;59.50;;;;;;7809416;22;20167;-64
2023/06/27 03:13:34;;;;;;;0.30;0.30;;;24.30;59.00;;;;;;7805728;22;20016;-64
2023/06/27 03:16:36;;;;;;;0.40;0.30;;;24.60;59.50;;;;;;7808674;22;20369;-64
2023/06/27 03:19:40;;;;;;;0.35;0.32;;;24.30;59.10;;;;;;7808751;22;20087;-64
2023/06/27 03:22:49;;;;;;;0.82;0.20;;;24.70;59.50;;;;;;7813150;22;20034;-60
2023/06/27 03:25:51;;;;;;;0.30;0.20;;;24.60;59.60;;;;;;7825234;22;20022;-60
2023/06/27 03:28:54;;;;;;;0.52;0.30;;;24.50;59.50;;;;;;7825050;22;20149;-60
2023/06/27 03:31:57;;;;;;;0.32;0.20;;;24.60;59.70;;;;;;7822794;22;20210;-60
2023/06/27 03:34:59;;;;;;;1.45;0.30;;;24.70;59.70;;;;;;7826275;22;20027;-60
2023/06/27 03:38:01;;;;;;;0.47;0.35;;;24.70;59.70;;;;;;7824107;22;20041;-60
2023/06/27 03:41:03;;;;;;;0.63;0.30;;;24.60;59.80;;;;;;7824767;22;20011;-60
2023/06/27 03:44:08;;;;;;;0.20;0.20;;;24.60;59.80;;;;;;7826992;22;20019;-60
2023/06/27 03:47:12;;;;;;;0.30;0.30;;;24.70;59.90;;;;;;7824420;22;20085;-60
2023/06/27 03:50:14;;;;;;;0.98;0.22;;;24.50;59.70;;;;;;7803300;22;20019;-60
2023/06/27 03:53:15;;;;;;;0.25;0.25;;;24.60;59.90;;;;;;7827098;22;20016;-60
2023/06/27 03:56:19;;;;;;;0.57;0.22;;;24.50;59.70;;;;;;7817439;22;20032;-59
2023/06/27 03:59:21;;;;;;;0.28;0.20;;;24.40;60.00;;;;;;7752306;22;20012;-60
2023/06/27 04:02:23;;;;;;;0.30;0.28;;;24.60;60.00;;;;;;7751504;22;20027;-60
2023/06/27 04:05:25;;;;;;;0.25;0.20;;;24.50;60.20;;;;;;7747351;22;20019;-59
2023/06/27 04:08:30;;;;;;;0.85;0.30;;;24.60;60.10;;;;;;7750224;22;20019;-60
2023/06/27 04:11:33;;;;;;;0.30;0.20;;;24.50;58.30;;;;;;7706054;23;20487;-59
2023/06/27 04:14:34;;;;;;;0.40;0.25;;;24.50;60.00;;;;;;7698131;23;20344;-59
2023/06/27 04:17:36;;;;;;;0.57;0.30;;;24.50;60.30;;;;;;7705734;23;20341;-59
2023/06/27 04:20:50;;;;;;;0.50;0.30;;;24.40;60.20;;;;;;7720337;22;20012;-91
2023/06/27 04:24:13;;;;;;;0.55;0.20;;;20.20;63.00;;;;;;7752822;23;20027;-90
2023/06/27 04:27:28;;;;;;;0.35;0.30;;;23.70;66.20;;;;;;7727621;23;20044;-90
2023/06/27 04:30:36;;;;;;;0.22;0.20;;;23.20;64.10;;;;;;7725723;23;20020;-91
2023/06/27 04:33:43;;;;;;;0.50;0.30;;;21.90;64.50;;;;;;7757133;22;20036;-90
2023/06/27 04:36:50;;;;;;;0.20;0.20;;;23.80;61.90;;;;;;7727003;23;20023;-90
2023/06/27 04:48:38;;;;;;;0.63;0.45;;;21.60;59.70;;;;;;7735447;22;20029;-91
2023/06/27 04:52:00;;;;;;;0.82;0.50;;;22.40;62.70;;;;;;7738026;22;20020;-91
2023/06/27 05:26:42;;;;;;;1.65;0.50;;;24.10;59.00;;;;;;7812243;22;20025;-90
2023/06/27 05:29:44;;;;;;;1.05;0.40;;;24.00;75.60;;;;;;7763820;22;20359;-59
2023/06/27 05:32:45;;;;;;;0.60;0.60;;;23.80;61.60;;;;;;7787474;22;20492;-58
2023/06/27 05:35:47;;;;;;;1.73;0.40;;;23.80;61.10;;;;;;7770331;22;20299;-58
2023/06/27 05:38:49;;;;;;;1.73;0.60;;;24.20;61.60;;;;;;7769058;22;20365;-59
2023/06/27 05:41:51;;;;;;;2.17;0.70;;;24.20;61.50;;;;;;7802033;22;20010;-59
2023/06/27 05:44:52;;;;;;;1.10;0.50;;;24.30;61.80;;;;;;7808369;22;20063;-59
2023/06/27 05:47:53;;;;;;;1.50;0.63;;;24.20;61.70;;;;;;7796333;22;20045;-58
2023/06/27 05:50:58;;;;;;;1.80;0.70;;;24.20;61.80;;;;;;7786778;22;20064;-59
2023/06/27 05:53:59;;;;;;;3.20;1.40;;;24.20;61.80;;;;;;7790949;22;20012;-59
2023/06/27 05:57:04;;;;;;;1.20;0.70;;;23.90;61.90;;;;;;7803357;22;20031;-58
2023/06/27 06:00:11;;;;;;;1.00;0.70;;;24.30;62.00;;;;;;7796197;22;20004;-58
2023/06/27 06:06:27;;;;;;;1.73;0.50;;;24.00;59.80;;;;;;7873098;22;20089;-59
2023/06/27 06:09:30;;;;;;;2.20;0.80;;;24.00;62.10;;;;;;7865477;22;20007;-59
2023/06/27 06:12:36;;;;;;;2.10;0.90;;;24.20;62.30;;;;;;7844085;22;20023;-60
2023/06/27 06:15:37;;;;;;;1.73;0.80;;;24.00;62.10;;;;;;7887446;22;20029;-59
2023/06/27 06:18:39;;;;;;;1.33;0.63;;;24.00;62.50;;;;;;7888614;22;20019;-58
2023/06/27 06:21:41;;;;;;;3.03;1.00;;;24.20;62.30;;;;;;7889448;22;19999;-59
2023/06/27 06:24:43;;;;;;;1.95;0.60;;;24.20;62.70;;;;;;7883457;22;20105;-59
2023/06/27 06:27:48;;;;;;;2.20;0.60;;;23.90;62.40;;;;;;7891422;22;20018;-59
2023/06/27 06:34:13;;;;;;;1.77;0.80;;;24.00;60.50;;;;;;7718039;22;20457;-57
2023/06/27 06:37:14;;;;;;;3.53;1.00;;;23.50;62.80;;;;;;7703641;22;20019;-59
2023/06/27 06:40:16;;;;;;;6.43;1.30;;;24.20;63.70;;;;;;7690482;23;20020;-60
2023/06/27 06:43:18;;;;;;;3.50;1.00;;;24.30;63.70;;;;;;7677699;22;20016;-59
2023/06/27 06:46:24;;;;;;;2.45;1.05;;;24.10;63.60;;;;;;7705326;23;20391;-61
2023/06/27 06:49:25;;;;;;;3.80;1.50;;;24.10;63.60;;;;;;7724362;22;20024;-60
2023/06/27 06:52:29;;;;;;;3.20;1.15;;;24.30;64.00;;;;;;7709777;22;20021;-59
2023/06/27 06:55:30;;;;;;;2.95;1.20;;;23.70;63.70;;;;;;7646476;22;20051;-59
2023/06/27 06:58:38;;;;;;;1.33;0.95;;;24.20;64.00;;;;;;7704949;22;20061;-60
2023/06/27 07:01:41;;;;;;;4.53;1.23;;;24.10;63.60;;;;;;7698644;22;20024;-58
2023/06/27 07:04:42;;;;;;;3.08;1.35;;;23.60;64.00;;;;;;7709588;23;20020;-58
2023/06/27 07:07:47;;;;;;;5.30;1.60;;;24.10;64.00;;;;;;7691708;23;20031;-58
2023/06/27 07:10:48;;;;;;;3.47;1.40;;;24.10;64.10;;;;;;7689385;23;20224;-58
2023/06/27 07:13:51;;;;;;;6.95;2.13;;;24.10;63.90;;;;;;7658343;23;20008;-57
2023/06/27 07:16:53;;;;;;;5.30;1.40;;;24.20;64.60;;;;;;7669550;23;20016;-57
2023/06/27 07:19:56;;;;;;;5.38;1.77;;;24.20;64.50;;;;;;7668170;23;20042;-57
2023/06/27 07:22:57;;;;;;;7.03;1.70;;;24.00;65.80;;;;;;7679162;22;20019;-57
2023/06/27 07:25:59;;;;;;;8.10;1.73;;;24.10;64.30;;;;;;7703743;22;20159;-57
2023/06/27 07:29:02;;;;;;;3.45;1.10;;;24.20;65.00;;;;;;7693221;23;20078;-57
2023/06/27 07:32:04;;;;;;;5.45;1.67;;;23.90;65.00;;;;;;7694221;23;20012;-58
2023/06/27 07:35:07;;;;;;;6.22;1.58;;;23.90;65.00;;;;;;7647886;23;20353;-59
2023/06/27 07:38:09;;;;;;;5.10;1.60;;;24.30;65.30;;;;;;7638782;23;20337;-58
2023/06/27 07:41:10;;;;;;;7.95;1.60;;;24.00;65.30;;;;;;7651625;23;20419;-58
2023/06/27 07:44:12;;;;;;;8.23;1.88;;;24.80;66.10;;;;;;7640409;23;20683;-58
2023/06/27 07:47:14;;;;;;;2.78;1.10;;;24.00;65.80;;;;;;7672020;23;20013;-58
2023/06/27 07:50:16;;;;;;;3.55;1.25;;;24.20;65.40;;;;;;7674514;23;20012;-60
2023/06/27 07:53:17;;;;;;;4.93;1.20;;;24.10;65.50;;;;;;7650899;23;20201;-60
2023/06/27 07:56:19;;;;;;;5.63;1.67;;;24.10;65.20;;;;;;7658511;23;20055;-60
2023/06/27 08:02:53;;;;;;;5.65;1.65;;;24.10;62.80;;;;;;7689897;22;20025;-61
2023/06/27 08:05:55;;;;;;;4.93;1.30;;;23.80;65.10;;;;;;7665966;22;20017;-60
2023/06/27 08:08:57;;;;;;;6.85;1.45;;;24.00;80.50;;;;;;7703971;22;20973;-60
2023/06/27 08:11:59;;;;;;;3.75;1.52;;;23.70;65.00;;;;;;7702187;22;20262;-60
2023/06/27 08:18:36;;;;;;;2.63;1.20;;;24.10;62.60;;;;;;7729768;22;20225;-60
2023/06/27 08:21:38;;;;;;;6.45;1.42;;;24.10;64.70;;;;;;7698966;22;20025;-64
2023/06/27 08:24:42;;;;;;;2.95;1.30;;;23.90;65.10;;;;;;7689571;22;20044;-60
2023/06/27 08:27:43;;;;;;;4.25;1.52;;;;;;;;;;7647372;23;20259;-62
2023/06/27 08:30:45;;;;;;;3.50;1.10;;;24.00;80.30;;;;;;7690092;22;20013;-60
2023/06/27 08:33:50;;;;;;;5.47;1.48;;;23.90;79.10;;;;;;7698030;22;20021;-60
2023/06/27 08:36:52;;;;;;;4.60;1.65;;;24.10;64.40;;;;;;7666094;23;20016;-59
2023/06/27 08:39:54;;;;;;;4.82;1.92;;;24.20;63.70;;;;;;7668831;23;20031;-61
2023/06/27 08:42:56;;;;;;;6.22;1.90;;;24.00;63.60;;;;;;7682293;23;20016;-62
2023/06/27 08:46:06;;;;;;;4.15;1.73;;;23.80;63.10;;;;;;7636899;23;20013;-62
2023/06/27 08:49:12;;;;;;;5.93;1.38;;;24.20;63.10;;;;;;7670526;23;20322;-60
2023/06/27 08:52:16;;;;;;;5.45;1.52;;;24.10;62.50;;;;;;7625294;23;20631;-61
2023/06/27 08:55:26;;;;;;;6.13;1.63;;;24.10;62.80;;;;;;7630605;23;20012;-62
2023/06/27 08:58:31;;;;;;;4.70;1.27;;;24.20;62.70;;;;;;7627077;23;20016;-61
2023/06/27 09:01:38;;;;;;;3.15;1.30;;;24.10;62.10;;;;;;7621384;23;20674;-61
2023/06/27 09:04:41;;;;;;;3.90;1.10;;;23.90;61.80;;;;;;7618182;23;20009;-62
2023/06/27 09:07:43;;;;;;;8.40;1.73;;;24.30;62.30;;;;;;7647570;22;20030;-62
2023/06/27 09:10:45;;;;;;;5.30;1.88;;;24.30;61.70;;;;;;7656772;23;20513;-63
2023/06/27 09:13:49;;;;;;;4.25;1.17;;;24.30;61.60;;;;;;7662531;23;20017;-64
2023/06/27 09:16:51;;;;;;;4.40;1.30;;;24.30;61.00;;;;;;7662231;23;20019;-64
2023/06/27 09:19:53;;;;;;;3.58;1.00;;;24.20;61.20;;;;;;7666803;23;20736;-65
2023/06/27 09:22:57;;;;;;;3.03;0.95;;;24.10;61.00;;;;;;7662998;22;20701;-62
2023/06/27 09:26:08;;;;;;;1.60;0.90;;;24.10;61.00;;;;;;7663341;22;20009;-61
2023/06/27 09:29:10;;;;;;;2.75;1.00;;;24.40;61.00;;;;;;7705970;22;20016;-61
2023/06/27 09:32:12;;;;;;;5.35;1.08;;;24.20;61.20;;;;;;7649621;23;20027;-64
2023/06/27 09:38:35;;;;;;;2.78;1.10;;;24.70;57.90;;;;;;7658774;22;20088;-60
2023/06/27 09:41:42;;;;;;;2.17;0.80;;;24.00;60.30;;;;;;7761117;22;20213;-58
2023/06/27 09:44:44;;;;;;;3.53;1.10;;;24.30;60.30;;;;;;7784406;22;20017;-58
2023/06/27 09:47:48;;;;;;;5.75;1.63;;;23.90;60.20;;;;;;7648905;23;20085;-59
2023/06/27 09:50:51;;;;;;;6.03;1.83;;;24.50;60.00;;;;;;7621699;23;20025;-60
2023/06/27 09:53:57;;;;;;;3.35;1.10;;;24.30;60.00;;;;;;7646938;23;20013;-60
2023/06/27 09:56:59;;;;;;;4.22;1.40;;;24.50;59.80;;;;;;7654398;23;20012;-60
2023/06/27 10:00:04;;;;;;;3.30;0.90;;;24.50;59.90;;;;;;7699885;23;20016;-60
2023/06/27 10:03:10;;;;;;;2.08;0.98;;;24.50;59.50;;;;;;7703855;22;20195;-59
2023/06/27 10:06:12;;;;;;;4.65;1.20;;;24.50;59.60;;;;;;7673184;23;20119;-60
2023/06/27 10:09:15;;;;;;;1.60;0.80;;;24.50;59.60;;;;;;7692340;23;20225;-60
2023/06/27 10:12:17;;;;;;;5.07;1.27;;;24.50;59.60;;;;;;7681782;23;20064;-60
2023/06/27 10:15:19;;;;;;;2.45;0.80;;;24.50;59.50;;;;;;7687387;23;20077;-60
2023/06/27 10:18:21;;;;;;;2.78;0.90;;;24.30;59.30;;;;;;7655337;23;20236;-60
2023/06/27 10:21:29;;;;;;;1.33;0.70;;;24.50;59.80;;;;;;7625210;22;20017;-60
2023/06/27 10:24:33;;;;;;;4.50;0.90;;;24.70;59.20;;;;;;7644169;22;20420;-61
2023/06/27 10:27:38;;;;;;;4.10;1.00;;;24.90;58.80;;;;;;7669149;22;20021;-61
2023/06/27 10:30:44;;;;;;;2.80;0.73;;;24.80;58.90;;;;;;7669135;23;20026;-62
2023/06/27 10:33:50;;;;;;;5.65;1.25;;;24.70;58.80;;;;;;7652894;23;20289;-61
2023/06/27 10:37:02;;;;;;;1.90;0.90;;;24.70;58.90;;;;;;7628445;23;20122;-61
2023/06/27 10:40:05;;;;;;;1.83;0.80;;;24.40;58.50;;;;;;7658061;23;20042;-61
2023/06/27 10:43:06;;;;;;;2.83;1.20;;;24.70;58.40;;;;;;7685245;23;20061;-61
2023/06/27 10:46:11;;;;;;;1.85;0.90;;;24.70;58.40;;;;;;7675481;23;20647;-61
2023/06/27 10:49:14;;;;;;;1.45;0.93;;;24.80;58.10;;;;;;7650922;23;20012;-61
2023/06/27 10:52:20;;;;;;;3.08;1.10;;;24.70;58.10;;;;;;7653188;23;20701;-63
2023/06/27 10:55:26;;;;;;;3.13;1.27;;;24.90;57.90;;;;;;7670446;23;20017;-63
2023/06/27 10:58:44;;;;;;;5.93;1.00;;;24.90;57.70;;;;;;7647154;23;20016;-61
2023/06/27 11:01:51;;;;;;;3.10;0.98;;;24.80;57.50;;;;;;7621316;22;20023;-62
2023/06/27 11:04:53;;;;;;;1.90;0.70;;;24.70;57.40;;;;;;7629146;22;20016;-61
2023/06/27 11:07:58;;;;;;;3.10;0.70;;;25.00;57.60;;;;;;7652891;23;20019;-61
2023/06/27 11:11:03;;;;;;;2.88;0.65;;;25.00;57.20;;;;;;7649347;23;20652;-61
2023/06/27 11:14:06;;;;;;;1.58;0.57;;;24.60;56.60;;;;;;7679403;23;20073;-61
2023/06/27 11:17:08;;;;;;;1.20;0.40;;;24.90;56.70;;;;;;7607616;22;20023;-60
2023/06/27 11:20:11;;;;;;;1.60;0.70;;;25.10;56.80;;;;;;7613842;23;20012;-61
2023/06/27 11:23:13;;;;;;;1.23;0.50;;;25.10;56.70;;;;;;7639100;23;20008;-61
2023/06/27 11:26:15;;;;;;;0.80;0.50;;;23.90;56.00;;;;;;7623223;23;20013;-61
2023/06/27 11:29:17;;;;;;;1.15;0.40;;;25.00;56.50;;;;;;7648715;23;20020;-61
2023/06/27 11:32:20;;;;;;;1.85;0.50;;;25.00;56.30;;;;;;7645809;23;20028;-62
2023/06/27 11:35:22;;;;;;;1.30;0.50;;;24.70;55.60;;;;;;7615187;22;20359;-60
2023/06/27 11:38:23;;;;;;;1.95;0.50;;;24.60;55.60;;;;;;7696569;22;20008;-60
2023/06/27 11:41:28;;;;;;;3.40;0.85;;;24.90;55.60;;;;;;7707363;22;20008;-59
2023/06/27 11:44:31;;;;;;;4.15;1.10;;;25.10;55.60;;;;;;7727090;22;20004;-58
2023/06/27 11:47:32;;;;;;;5.10;1.52;;;25.20;55.20;;;;;;7709884;23;20562;-59
2023/06/27 11:50:34;;;;;;;6.38;1.60;;;25.20;55.20;;;;;;7682352;23;20023;-62
2023/06/27 11:53:36;;;;;;;3.75;1.15;;;25.20;54.60;;;;;;7699474;23;20024;-60
2023/06/27 11:56:39;;;;;;;3.05;0.90;;;25.30;54.50;;;;;;7703814;23;20008;-60
2023/06/27 11:59:41;;;;;;;3.25;0.95;;;25.30;54.10;;;;;;7669914;23;20408;-61
2023/06/27 12:02:45;;;;;;;2.75;0.70;;;25.00;54.50;;;;;;7694298;22;20035;-59
2023/06/27 12:05:47;;;;;;;4.10;0.70;;;25.30;54.40;;;;;;7686846;22;20743;-60
2023/06/27 12:08:50;;;;;;;1.38;0.70;;;25.00;54.30;;;;;;7644839;23;20016;-60
2023/06/27 12:11:53;;;;;;;2.65;0.70;;;25.20;54.40;;;;;;7675655;23;20020;-60
2023/06/27 12:15:08;;;;;;;4.28;1.10;;;25.30;54.20;;;;;;7661299;23;20727;-59
2023/06/27 12:18:11;;;;;;;2.05;0.68;;;25.30;54.30;;;;;;7664683;22;20043;-60
2023/06/27 12:21:12;;;;;;;2.45;0.90;;;25.40;54.10;;;;;;7659946;23;20021;-60
2023/06/27 12:24:14;;;;;;;2.90;0.50;;;25.40;53.80;;;;;;7630615;22;20017;-61
2023/06/27 12:27:17;;;;;;;1.33;0.50;;;25.10;53.80;;;;;;7641949;23;20113;-60
2023/06/27 12:30:18;;;;;;;3.55;1.25;;;25.30;54.60;;;;;;7673537;23;20025;-60
2023/06/27 12:33:20;;;;;;;2.42;0.60;;;25.30;54.00;;;;;;7665660;23;20042;-60
2023/06/27 12:36:23;;;;;;;2.22;0.70;;;25.30;53.50;;;;;;7656807;23;20013;-61
2023/06/27 12:39:25;;;;;;;2.28;0.88;;;25.30;53.50;;;;;;7662636;23;20712;-60
2023/06/27 12:42:28;;;;;;;2.10;0.80;;;25.40;53.40;;;;;;7695778;22;20616;-51
2023/06/27 12:45:32;;;;;;;2.25;0.80;;;25.30;53.60;;;;;;7696298;23;20064;-56
2023/06/27 12:48:42;;;;;;;5.57;1.10;;;24.90;52.90;;;;;;7701346;22;20013;-58
2023/06/27 12:51:44;;;;;;;3.78;1.05;;;25.20;53.60;;;;;;7720311;23;20036;-56
2023/06/27 12:54:45;;;;;;;1.90;0.70;;;25.30;53.40;;;;;;7720671;22;20371;-57
2023/06/27 12:57:48;;;;;;;3.42;1.10;;;25.40;53.50;;;;;;7715019;23;20265;-58
2023/06/27 13:00:50;;;;;;;1.40;0.50;;;25.10;53.10;;;;;;7673250;23;20017;-56
2023/06/27 13:03:52;;;;;;;1.52;0.68;;;25.40;53.60;;;;;;7707844;23;20166;-58
2023/06/27 13:06:58;;;;;;;1.05;0.60;;;25.40;53.50;;;;;;7708418;22;20017;-57
2023/06/27 13:10:00;;;;;;;1.58;0.85;;;25.30;53.40;;;;;;7715396;23;20032;-56
2023/06/27 13:13:02;;;;;;;2.53;0.80;;;25.40;53.40;;;;;;7722986;22;20020;-56
2023/06/27 13:16:04;;;;;;;4.07;1.33;;;25.30;53.40;;;;;;7702314;23;20700;-58
2023/06/27 13:19:10;;;;;;;2.03;1.00;;;25.00;52.80;;;;;;7703923;23;20027;-58
2023/06/27 13:22:13;;;;;;;2.00;0.80;;;25.20;53.00;;;;;;7707983;22;20051;-57
2023/06/27 13:25:15;;;;;;;4.38;0.80;;;25.10;52.70;;;;;;7704619;22;20551;-58
2023/06/27 13:28:19;;;;;;;2.35;0.80;;;25.10;52.90;;;;;;7717622;23;20012;-56
2023/06/27 13:31:22;;;;;;;2.67;0.90;;;25.10;52.50;;;;;;7718581;23;20036;-57
2023/06/27 13:34:27;;;;;;;3.22;1.17;;;25.10;52.50;;;;;;7643917;23;20069;-57
2023/06/27 13:37:28;;;;;;;2.55;0.88;;;25.30;52.90;;;;;;7672487;23;20061;-57
2023/06/27 13:40:30;;;;;;;1.50;0.75;;;24.70;52.40;;;;;;7660502;23;20072;-57
2023/06/27 13:43:34;;;;;;;5.20;1.30;;;25.70;52.70;;;;;;7697034;22;20009;-57
2023/06/27 13:49:51;;;;;;;2.20;0.73;;;25.30;50.10;;;;;;7665406;22;20008;-57
2023/06/27 13:52:53;;;;;;;4.97;1.00;;;26.60;53.00;;;;;;7704095;22;20024;-58
2023/06/27 13:55:54;;;;;;;3.42;0.80;;;25.30;52.40;;;;;;7726806;22;21675;-57
2023/06/27 14:09:40;;;;;;;2.80;0.80;;;25.50;50.60;;;;;;7713030;22;20013;-57
2023/06/27 14:12:42;;;;;;;2.55;1.00;;;24.40;51.80;;;;;;7719087;22;20149;-89
2023/06/27 14:15:50;;;;;;;3.33;1.10;;;23.90;53.00;;;;;;7715082;22;20005;-89
2023/06/27 14:18:56;;;;;;;3.13;0.85;;;24.10;54.90;;;;;;7701288;23;20008;-90
2023/06/27 14:25:33;;;;;;;1.58;0.75;;;23.80;55.20;;;;;;7722685;22;20031;-90
2023/06/27 14:32:16;;;;;;;2.40;1.13;;;23.60;51.80;;;;;;7788897;22;20024;-56
2023/06/27 14:35:18;;;;;;;3.38;0.90;;;25.30;52.00;;;;;;7693176;22;20015;-58
2023/06/27 14:38:20;;;;;;;2.55;0.90;;;25.60;52.10;;;;;;7599298;23;20009;-57
2023/06/27 14:41:22;;;;;;;2.35;0.80;;;25.60;52.80;;;;;;7613981;23;20746;-56
2023/06/27 14:44:25;;;;;;;2.25;0.90;;;25.60;52.20;;;;;;7630323;23;20023;-56
2023/06/27 14:47:27;;;;;;;4.00;1.00;;;25.60;52.00;;;;;;7630713;22;20062;-57
2023/06/27 14:50:29;;;;;;;2.75;0.90;;;25.60;52.40;;;;;;7625260;22;20105;-57
2023/06/27 14:53:30;;;;;;;4.45;1.00;;;25.70;51.90;;;;;;7668930;23;20009;-57
2023/06/27 14:56:33;;;;;;;2.75;0.80;;;24.10;50.90;;;;;;7671060;23;20502;-56
2023/06/27 14:59:34;;;;;;;2.13;0.88;;;25.30;51.20;;;;;;7715286;23;20358;-58
2023/06/27 15:02:37;;;;;;;2.17;0.80;;;25.70;52.00;;;;;;7668766;22;20023;-57
2023/06/27 15:05:39;;;;;;;3.13;0.80;;;26.50;50.80;;;;;;7664950;22;20705;-58
2023/06/27 15:08:41;;;;;;;2.72;0.80;;;25.80;51.90;;;;;;7663958;23;20084;-57
2023/06/27 15:11:43;;;;;;;2.65;0.60;;;25.80;52.10;;;;;;7636575;23;20747;-57
2023/06/27 15:14:49;;;;;;;1.42;0.82;;;25.40;51.50;;;;;;7705173;22;20012;-56
2023/06/27 15:17:51;;;;;;;2.55;0.65;;;25.70;51.50;;;;;;7704216;23;20732;-58
2023/06/27 15:20:52;;;;;;;1.52;0.80;;;25.60;51.50;;;;;;7715313;22;20023;-57
2023/06/27 15:23:57;;;;;;;2.45;0.77;;;25.50;51.40;;;;;;7724534;23;20137;-57
2023/06/27 15:27:00;;;;;;;1.00;0.52;;;25.70;51.80;;;;;;7732602;23;20036;-56
2023/06/27 15:30:03;;;;;;;1.33;0.73;;;25.60;51.20;;;;;;7660897;23;20019;-56
2023/06/27 15:33:07;;;;;;;1.23;0.55;;;26.70;52.30;;;;;;7699558;22;20012;-57
2023/06/27 15:36:09;;;;;;;4.13;1.17;;;25.30;51.10;;;;;;7687605;23;20012;-57
2023/06/27 15:39:11;;;;;;;3.03;1.08;;;25.80;51.60;;;;;;7721137;22;20044;-57
2023/06/27 15:42:16;;;;;;;1.85;0.77;;;25.60;51.00;;;;;;7722517;23;20012;-56
2023/06/27 15:45:17;;;;;;;1.50;0.80;;;25.70;51.20;;;;;;7717213;23;20012;-56
2023/06/27 15:48:24;;;;;;;1.92;0.80;;;25.60;50.90;;;;;;7708792;23;20015;-56
2023/06/27 15:51:25;;;;;;;2.05;0.88;;;25.30;50.80;;;;;;7716324;23;20008;-56
2023/06/27 15:54:27;;;;;;;1.63;0.60;;;25.80;51.10;;;;;;7711325;23;20083;-57
2023/06/27 15:57:31;;;;;;;0.98;0.50;;;25.70;51.10;;;;;;7709518;22;20495;-56
2023/06/27 16:00:35;;;;;;;2.15;0.57;;;25.70;50.90;;;;;;7716921;23;20050;-56
2023/06/27 16:03:36;;;;;;;2.38;0.75;;;25.70;50.90;;;;;;7695811;23;20814;-56
2023/06/27 16:06:38;;;;;;;1.85;0.70;;;25.50;50.80;;;;;;7699349;23;20048;-56
2023/06/27 16:09:40;;;;;;;1.98;0.50;;;25.60;51.10;;;;;;7692425;23;20083;-57
2023/06/27 16:12:45;;;;;;;1.73;0.63;;;25.70;51.00;;;;;;7680269;22;20065;-56
2023/06/27 16:15:46;;;;;;;1.58;0.60;;;25.50;50.70;;;;;;7701010;23;20013;-56
2023/06/27 16:18:48;;;;;;;1.05;0.32;;;25.80;51.00;;;;;;7710525;22;20024;-56
2023/06/27 16:21:49;;;;;;;1.77;0.47;;;25.70;51.10;;;;;;7717819;22;20027;-57
2023/06/27 16:24:51;;;;;;;1.73;0.50;;;25.70;50.60;;;;;;7736323;23;20020;-57
2023/06/27 16:27:53;;;;;;;0.73;0.40;;;25.40;50.60;;;;;;7722642;23;20016;-57
2023/06/27 16:30:54;;;;;;;1.75;0.60;;;25.80;50.60;;;;;;7738028;23;20035;-56
2023/06/27 16:33:57;;;;;;;0.70;0.43;;;26.00;50.90;;;;;;7733961;23;20201;-56
2023/06/27 16:36:59;;;;;;;0.38;0.28;;;25.80;50.40;;;;;;7690737;23;20566;-58
2023/06/27 16:40:01;;;;;;;0.70;0.40;;;26.00;50.60;;;;;;7731956;22;20019;-57
2023/06/27 16:43:03;;;;;;;0.82;0.30;;;25.90;50.20;;;;;;7734264;23;20040;-52
2023/06/27 16:46:05;;;;;;;0.40;0.38;;;26.00;50.20;;;;;;7741087;23;20221;-56
2023/06/27 16:49:07;;;;;;;0.40;0.30;;;26.20;50.10;;;;;;7747923;22;20037;-55
2023/06/27 16:52:08;;;;;;;0.30;0.20;;;26.10;50.00;;;;;;7735815;23;20176;-58
2023/06/27 16:55:11;;;;;;;0.40;0.20;;;26.30;49.70;;;;;;7733790;22;20389;-57
2023/06/27 16:58:13;;;;;;;0.10;0.10;;;26.30;49.90;;;;;;7737957;22;20034;-58
2023/06/27 17:01:15;;;;;;;0.68;0.30;;;26.30;49.50;;;;;;7752053;22;20076;-56
2023/06/27 17:04:17;;;;;;;0.47;0.28;;;25.90;49.30;;;;;;7747405;23;20042;-57
2023/06/27 17:07:20;;;;;;;0.22;0.22;;;26.40;49.30;;;;;;7738042;23;20065;-56
2023/06/27 17:10:21;;;;;;;0.50;0.20;;;26.50;48.70;;;;;;7745448;23;20064;-55
2023/06/27 17:13:26;;;;;;;0.30;0.30;;;26.40;48.30;;;;;;7750889;23;20017;-57